Nearby METAR Reports


RPLC - Angeles/Pampanga, Philippines
Distance from station: S 166km
Updated: Thu, 19-Sep-2019 8:00pm PST
Light rain, Overcast
Light rain, Overcast
 Wind from SSE
Wind: SSE 4 km/h
Temperature: 25°C
Dew Point: 24°C
Humidity: 94%
Barometer: 1009 hPa
Summary: Light rain
Clouds: Overcast
Visibility: 4 km
Cloud details: Partly cloudy 549 m
Overcast 2743 m
2019/09/19 12:00 RPLC 191200Z 16002KT 4000 -RA SCT018 OVC090 25/24 Q1009 RMK A2980
RPLI - Laoag Intl Airport, Philippines
Distance from station: N 171km
Updated: Thu, 19-Sep-2019 8:00pm PST
Light rain, Overcast
Light rain, Overcast
 Wind from varies
Wind: varies 4 km/h
Temperature: 25°C
Dew Point: 24°C
Humidity: 94%
Barometer: 1008 hPa
Summary: Light rain
Clouds: Overcast
Visibility: 8 km
Cloud details: Partly cloudy 549 m
Overcast 2743 m
2019/09/19 12:00 RPLI 191200Z VRB02KT 8000 -RA SCT018 OVC090 25/24 Q1008 NOSIG RMK A2977
 
RPLB - Olongapo/Subic, Philippines
Distance from station: S 205km
Updated: Thu, 19-Sep-2019 8:00pm PST
Heavy rain, Overcast
Heavy rain, Overcast
 Wind from NNW
Wind: NNW 17 km/h
Temperature: 24°C
Dew Point: 24°C
Humidity: 100%
Barometer: 1010 hPa
Summary: Heavy rain
Clouds: Overcast
Visibility: 4 km
Cloud details: Mostly cloudy 549 m
Overcast 2134 m
2019/09/19 12:00 RPLB 191200Z 33009KT 290V360 4000 +RA BKN018 OVC070 24/24 Q1010 NOSIG RMK A2983
RPLL - Ninoy Aquino Intl Airport, Philippines
Distance from station: SSE 247km
Updated: Thu, 19-Sep-2019 8:00pm PST
Light rain, Overcast
Light rain, Overcast
 Wind from W
Wind: W 15 km/h, Gust: 33 km/h
Temperature: 25°C
Dew Point: 24°C
Humidity: 94%
Barometer: 1009 hPa
Summary: Light rain
Clouds: Overcast
Visibility: 7 km
Cloud details: Partly cloudy 610 m
Overcast 2438 m
2019/09/19 12:00 RPLL 191200Z 26008G18KT 7000 -RA SCT020 OVC080 25/24 Q1009 NOSIG RMK A2980